Time;durP1;ratioP1;P1;durP2;ratioP2;P2;SDS_P1;SDS_P2;PMS_P1;PMS_P2;Temp;Humidity;BMP_temperature;BMP_pressure;BME280_temperature;BME280_humidity;BME280_pressure;Samples;Min_cycle;Max_cycle;Signal;HPM_P1;HPM_P2
2022/06/05 00:01:54;;;;;;;7.40;4.35;;;;;;;17.70;100.00;99738.06;1725991;83;21065;-82
2022/06/05 00:04:35;;;;;;;7.53;5.08;;;;;;;17.67;100.00;99727.59;1685971;85;20989;-83
2022/06/05 00:07:07;;;;;;;7.95;4.83;;;;;;;17.65;100.00;99714.66;1686000;85;21535;-81
2022/06/05 00:10:10;;;;;;;9.03;5.20;;;;;;;17.61;100.00;99701.97;1686015;85;21014;-80
2022/06/05 00:12:44;;;;;;;6.72;4.83;;;;;;;17.59;100.00;99693.70;1659102;86;21620;-81
2022/06/05 00:15:11;;;;;;;7.95;4.80;;;;;;;17.56;100.00;99690.88;1626102;88;21110;-82
2022/06/05 00:17:38;;;;;;;7.25;4.72;;;;;;;17.54;100.00;99684.80;1625841;87;21058;-82
2022/06/05 00:20:06;;;;;;;7.62;4.30;;;;;;;17.51;100.00;99692.61;1625940;88;21527;-81
2022/06/05 00:22:33;;;;;;;8.35;4.37;;;;;;;17.48;100.00;99691.19;1620961;87;21030;-81
2022/06/05 00:25:00;;;;;;;6.92;4.40;;;;;;;17.46;100.00;99678.28;1626138;88;21091;-81
2022/06/05 00:28:00;;;;;;;10.25;4.70;;;;;;;17.46;100.00;99671.44;1625718;87;21042;-80
2022/06/05 00:30:44;;;;;;;9.40;4.72;;;;;;;17.44;100.00;99670.30;1626085;87;21605;-82
2022/06/05 00:33:19;;;;;;;7.33;4.60;;;;;;;17.43;100.00;99657.68;1623299;88;21079;-81
2022/06/05 00:35:54;;;;;;;7.65;4.53;;;;;;;17.43;100.00;99648.11;1626077;88;21014;-81
2022/06/05 00:38:30;;;;;;;6.67;4.55;;;;;;;17.41;100.00;99643.41;1623679;88;21050;-80
2022/06/05 00:41:14;;;;;;;7.15;4.62;;;;;;;17.39;100.00;99632.41;1579649;90;21090;-81
2022/06/05 00:43:43;;;;;;;6.65;4.78;;;;;;;17.37;100.00;99629.91;1599019;90;21058;-81
2022/06/05 00:46:10;;;;;;;9.48;4.62;;;;;;;17.34;100.00;99621.32;1599806;88;21129;-81
2022/06/05 00:48:37;;;;;;;7.33;4.35;;;;;;;17.31;100.00;99612.20;1625996;88;21342;-81
2022/06/05 00:51:04;;;;;;;8.48;4.55;;;;;;;17.28;100.00;99614.84;1626399;88;21018;-82
2022/06/05 00:53:31;;;;;;;6.50;4.30;;;;;;;17.25;100.00;99608.48;1626027;88;21070;-81
2022/06/05 00:55:58;;;;;;;8.65;4.50;;;;;;;17.22;100.00;99607.02;1626428;88;21528;-82
2022/06/05 00:58:25;;;;;;;7.08;4.15;;;;;;;17.17;100.00;99601.39;1626293;87;21026;-79
2022/06/05 01:00:54;;;;;;;7.45;4.58;;;;;;;17.14;100.00;99603.73;1625848;87;21028;-81
2022/06/05 01:03:21;;;;;;;9.23;4.60;;;;;;;17.10;100.00;99601.16;1627007;88;20987;-81
2022/06/05 01:05:48;;;;;;;6.97;4.35;;;;;;;17.06;100.00;99596.67;1626451;88;21051;-81
2022/06/05 01:08:15;;;;;;;6.55;4.25;;;;;;;17.03;100.00;99593.02;1627627;86;21043;-81
2022/06/05 01:11:08;;;;;;;7.20;4.25;;;;;;;17.00;100.00;99591.58;1627278;86;20994;-80
2022/06/05 01:13:59;;;;;;;6.50;4.12;;;;;;;16.99;100.00;99596.73;1613354;88;21113;-81
2022/06/05 01:16:50;;;;;;;9.25;4.00;;;;;;;16.95;100.00;99590.05;1612622;89;21113;-81
2022/06/05 01:19:42;;;;;;;6.55;3.90;;;;;;;16.93;100.00;99594.91;1611346;88;21075;-82
2022/06/05 01:22:48;;;;;;;6.03;4.10;;;;;;;16.89;100.00;99593.16;1611546;89;21032;-82
2022/06/05 01:25:32;;;;;;;5.92;4.08;;;;;;;16.85;100.00;99597.37;1611530;89;21525;-81
2022/06/05 01:28:08;;;;;;;6.55;4.03;;;;;;;16.83;100.00;99594.03;1611423;89;21105;-83
2022/06/05 01:30:40;;;;;;;6.05;4.20;;;;;;;16.83;100.00;99604.95;1611219;89;21139;-81
2022/06/05 01:33:12;;;;;;;6.47;4.12;;;;;;;16.83;100.00;99598.63;1611237;89;21068;-82
2022/06/05 01:36:01;;;;;;;8.45;4.37;;;;;;;16.81;100.00;99601.58;1605626;89;21106;-81
2022/06/05 01:38:48;;;;;;;7.25;4.10;;;;;;;16.82;100.00;99602.41;1656360;86;21021;-81
2022/06/05 01:41:26;;;;;;;7.05;4.20;;;;;;;16.81;100.00;99608.41;1639034;87;21586;-80
2022/06/05 01:43:54;;;;;;;5.40;3.95;;;;;;;16.81;100.00;99607.58;1485164;96;21087;-80
2022/06/05 01:46:34;;;;;;;8.28;4.40;;;;;;;16.80;100.00;99610.84;1490192;94;21132;-81
2022/06/05 01:49:32;;;;;;;6.00;4.28;;;;;;;16.79;100.00;99613.25;1518295;95;21059;-81
2022/06/05 01:52:23;;;;;;;5.42;3.80;;;;;;;16.81;100.00;99613.04;1493593;96;21093;-80
2022/06/05 01:55:04;;;;;;;6.60;4.00;;;;;;;16.80;100.00;99611.35;1441539;100;21155;-80
2022/06/05 01:57:31;;;;;;;5.70;3.85;;;;;;;16.80;100.00;99613.58;1450147;99;21201;-80
2022/06/05 02:00:11;;;;;;;5.05;3.85;;;;;;;16.81;100.00;99614.41;1450226;99;21098;-81
2022/06/05 02:03:19;;;;;;;7.25;3.85;;;;;;;16.82;100.00;99619.64;1450441;99;21137;-81
2022/06/05 02:05:56;;;;;;;6.17;4.17;;;;;;;16.83;100.00;99626.80;1450370;98;21150;-81
2022/06/05 02:08:36;;;;;;;6.92;4.20;;;;;;;16.88;100.00;99624.77;1436205;100;21148;-81
2022/06/05 02:11:24;;;;;;;6.97;4.10;;;;;;;16.91;100.00;99615.28;1435330;100;21634;-80
2022/06/05 02:14:03;;;;;;;8.15;4.40;;;;;;;16.92;100.00;99603.31;1427651;100;21164;-81
2022/06/05 02:16:32;;;;;;;7.37;4.05;;;;;;;16.96;100.00;99615.45;1372820;105;21226;-80
2022/06/05 02:19:03;;;;;;;5.85;3.87;;;;;;;16.96;100.00;99625.02;1372856;105;21210;-79
2022/06/05 02:21:32;;;;;;;9.53;4.10;;;;;;;16.96;100.00;99620.37;1372939;105;21191;-80
2022/06/05 02:24:00;;;;;;;7.60;4.05;;;;;;;16.98;100.00;99625.63;1372821;105;21753;-80
2022/06/05 02:26:27;;;;;;;7.97;4.35;;;;;;;16.97;100.00;99623.43;1356835;105;21157;-80
2022/06/05 02:28:56;;;;;;;6.95;4.12;;;;;;;16.95;100.00;99622.83;1372087;105;21652;-79
2022/06/05 02:31:54;;;;;;;7.28;4.10;;;;;;;16.96;100.00;99619.55;1381639;102;21117;-80
2022/06/05 02:35:15;;;;;;;9.03;4.47;;;;;;;16.94;100.00;99618.41;1409010;102;21167;-81
2022/06/05 02:38:22;;;;;;;8.23;4.28;;;;;;;16.94;100.00;99614.84;1411630;102;21165;-78
2022/06/05 02:41:10;;;;;;;8.00;4.10;;;;;;;16.94;100.00;99612.12;1474420;95;21080;-80
2022/06/05 02:46:59;;;;;;;6.10;4.40;;;;;;;16.97;100.00;99610.31;1472148;97;21065;-80
2022/06/05 02:49:44;;;;;;;6.42;4.40;;;;;;;16.97;100.00;99604.31;1472299;95;21211;-81
2022/06/05 02:52:11;;;;;;;12.70;4.55;;;;;;;17.00;100.00;99607.14;1473643;97;21164;-81
2022/06/05 02:54:44;;;;;;;9.93;4.20;;;;;;;17.03;100.00;99603.94;1471603;98;21085;-80
2022/06/05 02:57:13;;;;;;;7.53;4.60;;;;;;;17.05;100.00;99605.91;1471888;98;21057;-80
2022/06/05 02:59:40;;;;;;;11.60;4.40;;;;;;;17.07;100.00;99604.65;1471856;98;21044;-81
2022/06/05 03:04:52;;;;;;;8.58;4.20;;;;;;;17.14;100.00;99596.91;1471894;98;21088;-80
2022/06/05 03:07:20;;;;;;;7.17;4.50;;;;;;;17.18;100.00;99598.98;1471913;98;21108;-80
2022/06/05 03:09:48;;;;;;;7.72;4.15;;;;;;;17.25;100.00;99603.02;1471772;98;21595;-80
2022/06/05 03:12:16;;;;;;;7.87;4.28;;;;;;;17.29;100.00;99604.23;1492448;90;21512;-81
2022/06/05 03:14:44;;;;;;;6.87;4.20;;;;;;;17.34;100.00;99605.75;1587662;90;21066;-79
2022/06/05 03:17:11;;;;;;;7.45;4.55;;;;;;;17.39;100.00;99603.72;1587429;90;21098;-80
2022/06/05 03:19:39;;;;;;;9.20;4.37;;;;;;;17.42;100.00;99611.44;1587676;90;21087;-80
2022/06/05 03:22:06;;;;;;;6.20;4.37;;;;;;;17.43;100.00;99612.59;1587510;90;21529;-81
2022/06/05 03:24:33;;;;;;;9.13;4.40;;;;;;;17.46;100.00;99615.41;1587343;90;21090;-80
2022/06/05 03:27:00;;;;;;;6.97;4.30;;;;;;;17.48;100.00;99609.72;1587756;90;21568;-80
2022/06/05 03:29:27;;;;;;;8.03;4.20;;;;;;;17.49;100.00;99608.64;1587633;90;21062;-81
2022/06/05 03:31:54;;;;;;;9.30;4.65;;;;;;;17.49;100.00;99601.81;1587789;90;21058;-81
2022/06/05 03:34:21;;;;;;;8.53;4.72;;;;;;;17.50;100.00;99601.59;1587677;90;21069;-80
2022/06/05 03:36:48;;;;;;;12.10;5.20;;;;;;;17.49;100.00;99601.81;1587575;90;21592;-79
2022/06/05 03:39:15;;;;;;;10.00;4.85;;;;;;;17.46;100.00;99599.02;1615282;85;21030;-82
2022/06/05 03:41:42;;;;;;;12.53;4.75;;;;;;;17.43;100.00;99598.09;1691476;85;21512;-81
2022/06/05 03:44:10;;;;;;;12.35;5.22;;;;;;;17.40;100.00;99588.44;1691886;85;21042;-80
2022/06/05 03:46:40;;;;;;;12.23;5.08;;;;;;;17.40;100.00;99578.88;1690006;85;20979;-80
2022/06/05 03:49:08;;;;;;;9.90;5.03;;;;;;;17.40;100.00;99576.67;1648927;87;21072;-81
2022/06/05 03:51:36;;;;;;;9.40;5.12;;;;;;;17.40;100.00;99575.31;1682390;84;21039;-81
2022/06/05 03:54:03;;;;;;;10.60;5.08;;;;;;;17.42;100.00;99567.20;1649265;87;21062;-81
2022/06/05 03:56:30;;;;;;;9.95;5.00;;;;;;;17.48;100.00;99556.43;1717069;83;21025;-81
2022/06/05 03:58:57;;;;;;;10.15;5.03;;;;;;;17.55;100.00;99550.35;1717375;83;21046;-81
2022/06/05 04:01:25;;;;;;;9.00;5.28;;;;;;;17.67;100.00;99548.52;1717122;84;21041;-82
2022/06/05 04:03:52;;;;;;;13.28;5.15;;;;;;;17.80;100.00;99544.23;1717452;84;21025;-81
2022/06/05 04:06:27;;;;;;;8.60;5.17;;;;;;;17.95;100.00;99535.63;1717215;83;21014;-81
2022/06/05 04:08:55;;;;;;;10.05;5.12;;;;;;;18.10;100.00;99535.77;1693033;85;21039;-72
2022/06/05 04:11:22;;;;;;;9.38;5.17;;;;;;;18.24;100.00;99543.22;1692032;85;21069;-73
2022/06/05 04:13:49;;;;;;;9.08;5.05;;;;;;;18.32;100.00;99551.94;1692248;85;21002;-72
2022/06/05 04:16:23;;;;;;;9.30;4.60;;;;;;;18.47;100.00;99557.50;1691820;83;21038;-73
2022/06/05 04:18:49;;;;;;;;;;;;;;;18.63;100.00;99560.95;1694573;85;21038;-73
2022/06/05 04:21:26;;;;;;;10.48;4.92;;;;;;;18.84;100.00;99561.46;1691915;85;20109;-73
2022/06/05 04:23:53;;;;;;;11.28;5.37;;;;;;;19.07;100.00;99559.27;1692024;85;21054;-72
2022/06/05 04:26:28;;;;;;;13.78;5.83;;;;;;;19.29;100.00;99569.09;1691685;85;21102;-73
2022/06/05 04:28:55;;;;;;;9.83;5.50;;;;;;;19.39;100.00;99574.81;1658287;86;21031;-72
2022/06/05 04:31:27;;;;;;;10.78;5.22;;;;;;;19.40;100.00;99583.86;1658279;85;21053;-72
2022/06/05 04:33:58;;;;;;;13.10;5.50;;;;;;;19.38;100.00;99584.09;1552242;90;21062;-72
2022/06/05 04:36:26;;;;;;;10.98;5.30;;;;;;;19.36;100.00;99594.48;1589715;90;21137;-72
2022/06/05 04:38:54;;;;;;;12.28;5.62;;;;;;;19.31;100.00;99591.61;1590161;90;21042;-70
2022/06/05 04:41:22;;;;;;;12.15;5.87;;;;;;;19.26;100.00;99581.91;1589882;90;21140;-72
2022/06/05 04:43:49;;;;;;;9.55;5.50;;;;;;;19.22;100.00;99578.81;1589956;90;21110;-74
2022/06/05 04:46:18;;;;;;;10.32;5.55;;;;;;;19.21;100.00;99571.68;1569698;90;21122;-72
2022/06/05 04:48:45;;;;;;;13.40;5.72;;;;;;;19.22;100.00;99566.48;1589985;90;21536;-72
2022/06/05 04:51:15;;;;;;;12.05;5.83;;;;;;;19.24;100.00;99568.98;1589811;90;21061;-73
2022/06/05 04:53:43;;;;;;;10.75;5.85;;;;;;;19.17;100.00;99566.36;1590318;90;21045;-75
2022/06/05 04:56:12;;;;;;;8.63;5.80;;;;;;;19.11;100.00;99566.78;1590636;90;21155;-73
2022/06/05 04:58:40;;;;;;;8.68;5.70;;;;;;;19.05;100.00;99551.83;1590921;90;21061;-72
2022/06/05 05:01:20;;;;;;;10.50;5.95;;;;;;;18.99;100.00;99550.87;1592451;90;21034;-73
2022/06/05 05:03:47;;;;;;;13.03;5.75;;;;;;;19.08;100.00;99543.13;1591933;90;21094;-73
2022/06/05 05:06:15;;;;;;;15.68;6.42;;;;;;;19.40;100.00;99536.71;1603646;89;21148;-72
2022/06/05 05:08:43;;;;;;;13.43;7.15;;;;;;;19.68;100.00;99541.41;1608118;89;21087;-72
2022/06/05 05:11:10;;;;;;;11.45;6.50;;;;;;;19.99;100.00;99551.67;1607980;89;21111;-73
2022/06/05 05:13:37;;;;;;;11.25;6.45;;;;;;;20.28;100.00;99568.13;1607908;89;21075;-72
2022/06/05 05:16:05;;;;;;;13.13;7.20;;;;;;;20.58;100.00;99582.11;1607971;89;21098;-73
2022/06/05 05:18:33;;;;;;;10.93;6.40;;;;;;;20.82;100.00;99594.64;1608075;89;21093;-71
2022/06/05 05:21:08;;;;;;;13.38;8.53;;;;;;;21.00;100.00;99605.92;1608047;89;21039;-71
2022/06/05 05:23:36;;;;;;;12.40;7.40;;;;;;;21.17;100.00;99622.94;1608132;89;21125;-74
2022/06/05 05:26:13;;;;;;;9.30;5.80;;;;;;;21.29;100.00;99622.30;1608490;89;21070;-75
2022/06/05 05:28:40;;;;;;;12.80;7.03;;;;;;;21.43;100.00;99634.61;1623424;88;21510;-69
2022/06/05 05:31:10;;;;;;;9.15;5.70;;;;;;;21.65;100.00;99636.59;1708305;82;21306;-71
2022/06/05 05:33:38;;;;;;;9.80;6.20;;;;;;;21.91;100.00;99630.07;1747567;82;21006;-71
2022/06/05 05:36:08;;;;;;;13.72;6.85;;;;;;;22.19;100.00;99630.41;1748458;82;21049;-69
2022/06/05 05:38:36;;;;;;;12.85;7.75;;;;;;;22.37;100.00;99642.48;1740385;82;20973;-73
2022/06/05 05:43:50;;;;;;;13.15;6.85;;;;;;;22.84;100.00;99653.95;1696751;84;21572;-73
2022/06/05 05:46:18;;;;;;;9.10;6.97;;;;;;;23.09;100.00;99658.36;1681657;85;21064;-74
2022/06/05 05:48:46;;;;;;;13.38;6.90;;;;;;;23.43;100.00;99655.86;1681572;85;21098;-74
2022/06/05 05:51:14;;;;;;;9.78;6.35;;;;;;;23.78;100.00;99663.52;1681745;85;21100;-74
2022/06/05 05:53:41;;;;;;;14.50;7.10;;;;;;;24.07;100.00;99663.14;1677368;85;21076;-74
2022/06/05 05:56:12;;;;;;;11.10;7.40;;;;;;;24.37;100.00;99664.36;1730011;83;21112;-73
2022/06/05 05:58:40;;;;;;;10.98;6.58;;;;;;;24.55;100.00;99674.11;1730083;83;21053;-74
2022/06/05 06:01:10;;;;;;;11.78;6.45;;;;;;;24.61;100.00;99690.44;1730013;83;21562;-73
2022/06/05 06:03:37;;;;;;;9.58;6.17;;;;;;;24.71;100.00;99691.00;1730453;83;21013;-75
2022/06/05 06:06:05;;;;;;;8.53;5.50;;;;;;;24.89;100.00;99692.97;1730059;83;21041;-73
2022/06/05 06:08:34;;;;;;;8.33;5.08;;;;;;;25.13;100.00;99689.95;1730044;83;21073;-74
2022/06/05 06:11:01;;;;;;;9.00;5.65;;;;;;;25.46;100.00;99685.53;1730061;81;21080;-74
2022/06/05 06:13:29;;;;;;;9.53;6.05;;;;;;;25.70;100.00;99691.31;1730172;82;21487;-74
2022/06/05 06:15:56;;;;;;;11.63;5.42;;;;;;;25.94;100.00;99693.78;1730283;83;21033;-75
2022/06/05 06:18:23;;;;;;;9.40;5.05;;;;;;;26.01;100.00;99701.80;1729897;83;21030;-74
2022/06/05 06:20:50;;;;;;;10.72;5.58;;;;;;;25.98;100.00;99705.69;1729611;83;21029;-71
2022/06/05 06:23:17;;;;;;;8.78;5.62;;;;;;;25.97;100.00;99712.33;1729494;83;21049;-72
2022/06/05 06:25:44;;;;;;;10.63;5.50;;;;;;;25.91;100.00;99710.92;1703113;83;21000;-71
2022/06/05 06:28:11;;;;;;;11.97;6.55;;;;;;;25.97;100.00;99701.25;1698543;84;20996;-73
2022/06/05 06:30:40;;;;;;;12.73;7.20;;;;;;;26.18;100.00;99703.40;1698522;84;21040;-74
2022/06/05 06:33:07;;;;;;;20.48;7.53;;;;;;;26.29;100.00;99711.39;1687294;84;21486;-74
2022/06/05 06:35:37;;;;;;;13.35;6.50;;;;;;;26.45;100.00;99717.67;1698861;83;20981;-75
2022/06/05 06:38:04;;;;;;;12.82;5.80;;;;;;;26.59;100.00;99714.29;1698674;84;21056;-75
2022/06/05 06:40:31;;;;;;;9.50;5.62;;;;;;;26.81;100.00;99713.94;1699153;84;21020;-76
2022/06/05 06:43:00;;;;;;;11.00;5.35;;;;;;;27.04;100.00;99709.62;1698675;84;21071;-75
2022/06/05 06:45:28;;;;;;;9.93;4.92;;;;;;;27.27;100.00;99710.86;1698637;84;21047;-76
2022/06/05 06:47:55;;;;;;;14.23;5.40;;;;;;;27.37;100.00;99716.86;1698810;84;21024;-73
2022/06/05 06:50:22;;;;;;;10.53;5.53;;;;;;;27.49;100.00;99719.27;1698783;83;21027;-73
2022/06/05 06:52:49;;;;;;;8.88;5.35;;;;;;;27.51;100.00;99723.40;1698404;83;21040;-78
2022/06/05 06:55:18;;;;;;;9.95;5.25;;;;;;;27.66;100.00;99722.45;1676287;86;21088;-76
2022/06/05 06:57:45;;;;;;;8.30;4.83;;;;;;;27.88;100.00;99716.38;1676422;86;20997;-77
2022/06/05 07:00:18;;;;;;;8.08;5.20;;;;;;;27.96;100.00;99720.48;1676690;85;21080;-76
2022/06/05 07:02:45;;;;;;;9.45;5.10;;;;;;;27.83;100.00;99705.31;1675850;86;21542;-71
2022/06/05 07:05:12;;;;;;;8.45;5.10;;;;;;;27.73;100.00;99705.41;1676023;86;21018;-75
2022/06/05 07:07:41;;;;;;;8.45;5.20;;;;;;;27.75;100.00;99690.70;1675825;86;21084;-74
2022/06/05 07:10:09;;;;;;;9.93;4.90;;;;;;;27.90;100.00;99688.30;1676133;86;21069;-74
2022/06/05 07:12:36;;;;;;;12.15;5.25;;;;;;;28.09;100.00;99683.66;1675563;86;21045;-73
2022/06/05 07:15:05;;;;;;;10.25;5.78;;;;;;;28.28;100.00;99696.76;1675792;85;21045;-75
2022/06/05 07:17:33;;;;;;;11.40;5.30;;;;;;;28.40;100.00;99713.84;1676029;86;21012;-74
2022/06/05 07:20:00;;;;;;;9.68;5.17;;;;;;;28.53;100.00;99710.92;1676211;86;21023;-77
2022/06/05 07:22:27;;;;;;;9.15;5.00;;;;;;;28.74;100.00;99704.54;1676477;86;20981;-76
2022/06/05 07:24:54;;;;;;;9.53;5.37;;;;;;;28.87;100.00;99707.94;1676472;85;21077;-76
2022/06/05 07:27:21;;;;;;;9.55;4.92;;;;;;;28.87;100.00;99712.69;1676517;86;20996;-75
2022/06/05 07:29:48;;;;;;;7.47;5.22;;;;;;;28.79;100.00;99705.83;1676503;86;21522;-75
2022/06/05 07:32:15;;;;;;;11.35;5.17;;;;;;;28.84;100.00;99703.55;1676076;86;21100;-76
2022/06/05 07:34:43;;;;;;;9.88;5.50;;;;;;;29.05;100.00;99709.63;1676579;86;21041;-80
2022/06/05 07:37:10;;;;;;;11.20;5.20;;;;;;;28.98;100.00;99715.00;1676559;86;21021;-79
2022/06/05 07:39:36;;;;;;;7.17;4.97;;;;;;;28.76;100.00;99715.61;1686011;85;21057;-78
2022/06/05 07:42:04;;;;;;;11.45;5.28;;;;;;;28.54;100.00;99712.58;1691895;85;21014;-79
2022/06/05 07:44:31;;;;;;;11.80;5.72;;;;;;;28.58;100.00;99701.97;1691581;85;21046;-79
2022/06/05 07:46:58;;;;;;;9.88;5.95;;;;;;;28.66;100.00;99707.98;1678257;85;21461;-78
2022/06/05 07:49:25;;;;;;;11.20;5.90;;;;;;;28.63;100.00;99709.39;1654322;87;21033;-78
2022/06/05 07:54:37;;;;;;;9.70;5.00;;;;;;;28.75;100.00;99713.95;1674380;85;21014;-78
2022/06/05 07:57:13;;;;;;;9.43;5.33;;;;;;;28.24;100.00;99711.00;1668551;85;20998;-78
2022/06/05 07:59:43;;;;;;;8.78;4.97;;;;;;;27.71;100.00;99710.44;1687414;85;21027;-80
2022/06/05 08:02:18;;;;;;;8.23;5.20;;;;;;;27.44;100.00;99703.47;1687826;85;21022;-79
2022/06/05 08:04:45;;;;;;;8.50;4.85;;;;;;;27.58;100.00;99701.67;1676724;86;21567;-80
2022/06/05 08:07:16;;;;;;;10.40;4.70;;;;;;;27.81;100.00;99695.87;1676949;86;21078;-79
2022/06/05 08:09:46;;;;;;;10.68;4.83;;;;;;;28.03;100.00;99703.73;1676598;86;21077;-78
2022/06/05 08:12:16;;;;;;;7.92;4.62;;;;;;;28.13;100.00;99704.17;1676517;84;21057;-77
2022/06/05 08:14:44;;;;;;;9.63;4.95;;;;;;;28.50;100.00;99698.99;1676498;86;21025;-78
2022/06/05 08:17:17;;;;;;;9.85;5.25;;;;;;;28.76;100.00;99704.48;1676566;86;21516;-77
2022/06/05 08:19:43;;;;;;;12.63;5.50;;;;;;;28.15;100.00;99701.09;1676920;84;21045;-77
2022/06/05 08:22:12;;;;;;;8.60;4.80;;;;;;;28.15;100.00;99701.09;1676602;86;21726;-77
2022/06/05 08:24:39;;;;;;;6.25;4.60;;;;;;;28.10;100.00;99696.44;1676265;84;21168;-77
2022/06/05 08:27:10;;;;;;;8.18;4.65;;;;;;;28.29;100.00;99691.48;1676598;86;21495;-77
2022/06/05 08:29:37;;;;;;;9.80;4.80;;;;;;;28.51;100.00;99695.91;1614134;89;21078;-77
2022/06/05 08:32:05;;;;;;;7.10;4.72;;;;;;;28.59;100.00;99693.05;1614363;89;21042;-77
2022/06/05 08:34:32;;;;;;;8.38;4.85;;;;;;;28.62;100.00;99696.63;1592384;89;21654;-77
2022/06/05 08:42:55;;;;;;;6.15;4.58;;;;;;;28.41;100.00;99698.83;1596239;88;21087;-78
2022/06/05 08:45:25;;;;;;;8.18;4.70;;;;;;;28.59;100.00;99701.39;1579122;90;21086;-78
2022/06/05 08:47:59;;;;;;;7.53;4.72;;;;;;;28.78;100.00;99699.44;1577969;89;21127;-78
2022/06/05 08:50:42;;;;;;;6.60;4.85;;;;;;;29.02;100.00;99696.31;1605305;89;21086;-79
2022/06/05 08:53:31;;;;;;;10.43;5.92;;;;;;;29.34;100.00;99700.55;1606423;89;21090;-77
2022/06/05 08:55:58;;;;;;;12.07;6.17;;;;;;;29.64;100.00;99708.66;1606627;89;21079;-77
2022/06/05 08:58:32;;;;;;;11.22;6.47;;;;;;;29.92;100.00;99703.98;1607260;89;21074;-77
2022/06/05 09:01:13;;;;;;;11.70;6.60;;;;;;;29.93;100.00;99705.64;1603405;89;21142;-79
2022/06/05 09:03:54;;;;;;;10.32;6.70;;;;;;;29.93;100.00;99712.61;1586027;90;21072;-77
2022/06/05 09:06:36;;;;;;;9.50;5.70;;;;;;;29.99;100.00;99710.55;1615784;89;21500;-77
2022/06/05 09:09:06;;;;;;;8.43;5.40;;;;;;;30.13;100.00;99724.50;1586214;89;21635;-79
2022/06/05 09:11:53;;;;;;;10.72;5.60;;;;;;;30.22;100.00;99722.62;1619242;89;21049;-78
2022/06/05 09:14:38;;;;;;;9.00;5.33;;;;;;;30.22;100.00;99710.08;1586068;89;21072;-79
2022/06/05 09:17:15;;;;;;;12.68;5.53;;;;;;;30.23;100.00;99706.98;1586173;90;21499;-77
2022/06/05 09:19:42;;;;;;;7.45;4.35;;;;;;;30.37;100.00;99707.59;1618947;89;21089;-79
2022/06/05 09:22:33;;;;;;;9.00;5.67;;;;;;;30.26;100.00;99701.34;1588191;90;21078;-78
2022/06/05 09:25:22;;;;;;;11.73;5.92;;;;;;;29.83;100.00;99709.44;1622597;88;21050;-77
2022/06/05 09:28:33;;;;;;;14.83;7.65;;;;;;;29.39;100.00;99693.23;1726729;83;21479;-78
2022/06/05 09:31:20;;;;;;;14.00;7.70;;;;;;;29.44;100.00;99691.17;1726921;83;21494;-77
2022/06/05 09:33:47;;;;;;;12.47;7.25;;;;;;;29.50;100.00;99689.13;1727316;83;21008;-78
2022/06/05 09:36:16;;;;;;;13.08;5.78;;;;;;;29.71;100.00;99685.40;1727020;83;21012;-76
2022/06/05 09:38:49;;;;;;;10.10;5.83;;;;;;;30.01;100.00;99690.16;1730756;82;21011;-76
2022/06/05 09:41:40;;;;;;;8.98;5.12;;;;;;;30.24;100.00;99696.66;1747578;82;21058;-77
2022/06/05 09:44:45;;;;;;;8.28;5.10;;;;;;;30.20;100.00;99702.02;1747973;82;21010;-79
2022/06/05 09:47:25;;;;;;;9.65;4.70;;;;;;;29.87;100.00;99707.71;1722724;82;21065;-77
2022/06/05 09:49:58;;;;;;;9.93;4.95;;;;;;;29.32;100.00;99701.42;1693203;85;21197;-78
2022/06/05 09:52:28;;;;;;;9.03;4.58;;;;;;;28.98;100.00;99700.27;1646392;87;21591;-77
2022/06/05 09:55:12;;;;;;;9.93;5.67;;;;;;;28.71;100.00;99705.13;1653541;86;21061;-77
2022/06/05 09:58:26;;;;;;;7.12;5.30;;;;;;;28.44;100.00;99697.39;1610552;89;21075;-77
2022/06/05 10:01:00;;;;;;;13.88;5.80;;;;;;;28.16;100.00;99695.81;1610406;89;21070;-76
2022/06/05 10:03:37;;;;;;;8.23;5.22;;;;;;;27.95;100.00;99685.50;1619001;84;21579;-77
2022/06/05 10:06:36;;;;;;;9.80;5.62;;;;;;;27.83;100.00;99677.00;1560831;92;21115;-76
2022/06/05 10:09:20;;;;;;;10.25;6.00;;;;;;;27.64;100.00;99671.36;1559634;88;21055;-81
2022/06/05 10:12:07;;;;;;;13.00;7.20;;;;;;;27.46;100.00;99667.38;1561397;92;21091;-81
2022/06/05 10:15:07;;;;;;;11.75;7.00;;;;;;;27.32;100.00;99663.63;1561291;92;21152;-81
2022/06/05 10:17:41;;;;;;;11.60;6.50;;;;;;;27.14;100.00;99667.89;1559119;92;21095;-81
2022/06/05 10:20:36;;;;;;;12.20;5.45;;;;;;;26.99;100.00;99670.81;1561362;92;21103;-82
2022/06/05 10:23:12;;;;;;;;;;;;;;;26.84;100.00;99665.65;1562580;92;21546;-81
2022/06/05 10:26:00;;;;;;;7.83;4.70;;;;;;;26.79;100.00;99666.22;1561491;92;20123;-81
2022/06/05 10:28:31;;;;;;;8.45;5.08;;;;;;;26.97;100.00;99661.92;1490436;96;21192;-82
2022/06/05 10:31:13;;;;;;;9.20;4.58;;;;;;;27.37;100.00;99660.78;1492288;96;21092;-80
2022/06/05 10:34:08;;;;;;;8.98;4.70;;;;;;;27.75;100.00;99658.76;1500839;94;21092;-83
2022/06/05 10:37:29;;;;;;;9.95;4.03;;;;;;;27.99;100.00;99677.68;1519972;94;21088;-81
2022/06/05 10:40:18;;;;;;;5.35;3.90;;;;;;;28.13;100.00;99670.81;1519084;94;21608;-82
2022/06/05 10:43:01;;;;;;;7.92;3.95;;;;;;;28.25;100.00;99680.70;1519203;95;21094;-81
2022/06/05 10:45:50;;;;;;;6.62;4.17;;;;;;;27.98;100.00;99687.70;1518850;92;21098;-80
2022/06/05 10:48:44;;;;;;;7.50;4.03;;;;;;;27.80;100.00;99685.06;1496735;93;21150;-81
2022/06/05 10:51:35;;;;;;;6.80;4.12;;;;;;;27.64;100.00;99686.63;1528222;94;21109;-81
2022/06/05 10:54:32;;;;;;;18.02;4.72;;;;;;;27.53;100.00;99689.79;1528249;93;21092;-81
2022/06/05 10:57:07;;;;;;;5.20;3.58;;;;;;;27.38;100.00;99692.98;1528333;94;21061;-81
2022/06/05 10:59:54;;;;;;;9.43;3.90;;;;;;;27.21;100.00;99693.36;1532049;93;21128;-82
2022/06/05 11:02:44;;;;;;;6.83;3.87;;;;;;;27.15;100.00;99696.49;1549604;93;21107;-79
2022/06/05 11:06:07;;;;;;;5.10;3.50;;;;;;;27.10;100.00;99693.19;1529997;93;21099;-83
2022/06/05 11:09:13;;;;;;;12.80;3.95;;;;;;;27.12;100.00;99690.13;1556105;91;21109;-83
2022/06/05 11:15:12;;;;;;;7.20;3.77;;;;;;;26.98;100.00;99699.66;1580633;91;21111;-80
2022/06/05 11:18:17;;;;;;;4.97;3.35;;;;;;;26.85;100.00;99706.12;1577506;91;21083;-80
2022/06/05 11:20:57;;;;;;;4.83;3.50;;;;;;;26.74;100.00;99703.16;1580192;91;21060;-81
2022/06/05 11:23:28;;;;;;;6.42;3.58;;;;;;;26.59;100.00;99717.06;1580370;91;21060;-81
2022/06/05 11:26:28;;;;;;;8.50;3.67;;;;;;;26.41;100.00;99708.28;1647335;86;21034;-80
2022/06/05 11:29:27;;;;;;;8.35;3.85;;;;;;;26.24;100.00;99711.42;1642061;87;21067;-81
2022/06/05 11:32:12;;;;;;;10.70;3.90;;;;;;;26.08;100.00;99706.48;1642301;87;21034;-80
2022/06/05 11:34:57;;;;;;;7.35;3.47;;;;;;;25.93;100.00;99710.64;1642198;87;21103;-80
2022/06/05 11:37:47;;;;;;;9.45;3.62;;;;;;;25.70;100.00;99710.70;1642120;87;21039;-82
2022/06/05 11:40:47;;;;;;;5.37;3.47;;;;;;;25.48;100.00;99701.30;1643543;85;21089;-82
2022/06/05 11:43:35;;;;;;;5.45;3.22;;;;;;;25.26;100.00;99699.66;1640552;87;21029;-81
2022/06/05 11:46:22;;;;;;;6.92;3.67;;;;;;;25.10;100.00;99703.50;1684722;85;21583;-81
2022/06/05 11:48:59;;;;;;;5.37;3.58;;;;;;;24.93;100.00;99699.59;1638447;87;21049;-81
2022/06/05 11:51:40;;;;;;;4.37;3.45;;;;;;;24.82;100.00;99693.23;1638341;88;21132;-80
2022/06/05 11:54:27;;;;;;;5.40;3.52;;;;;;;24.73;100.00;99693.49;1635392;87;21068;-80
2022/06/05 11:57:34;;;;;;;5.35;3.30;;;;;;;24.64;100.00;99693.20;1643263;87;21036;-82
2022/06/05 12:00:15;;;;;;;7.58;3.52;;;;;;;24.55;100.00;99695.66;1643186;87;21049;-81
2022/06/05 12:03:19;;;;;;;6.62;3.60;;;;;;;24.44;100.00;99700.85;1621633;84;21152;-80
2022/06/05 12:06:09;;;;;;;6.50;3.25;;;;;;;24.37;100.00;99702.48;1640333;87;21013;-80
2022/06/05 12:08:42;;;;;;;4.37;3.10;;;;;;;24.30;100.00;99707.42;1640904;87;21084;-80
2022/06/05 12:11:25;;;;;;;6.80;3.08;;;;;;;24.17;100.00;99715.66;1641489;87;21090;-80
2022/06/05 12:14:16;;;;;;;6.75;3.33;;;;;;;24.04;100.00;99725.80;1641122;87;21614;-79
2022/06/05 12:16:52;;;;;;;8.58;3.10;;;;;;;23.97;100.00;99723.83;1641649;87;21044;-80
2022/06/05 12:19:28;;;;;;;6.15;2.80;;;;;;;23.91;100.00;99724.36;1641545;87;21638;-82
2022/06/05 12:22:16;;;;;;;6.17;3.08;;;;;;;23.84;100.00;99724.59;1639676;87;21056;-81